createdAt,value
2018-10-17T00:01:39.033Z,13.45
2018-10-17T00:04:06.737Z,13.36
2018-10-17T00:06:34.390Z,13.37
2018-10-17T00:09:02.138Z,13.31
2018-10-17T00:11:29.856Z,13.33
2018-10-17T00:13:57.553Z,13.30
2018-10-17T00:16:25.274Z,13.24
2018-10-17T00:18:52.902Z,13.20
2018-10-17T00:21:20.554Z,13.13
2018-10-17T00:23:48.248Z,13.06
2018-10-17T00:26:15.970Z,13.12
2018-10-17T00:28:43.705Z,13.22
2018-10-17T00:31:11.497Z,13.19
2018-10-17T00:33:39.147Z,13.10
2018-10-17T00:36:06.865Z,13.11
2018-10-17T00:38:34.561Z,13.04
2018-10-17T00:41:02.279Z,12.87
2018-10-17T00:43:29.949Z,12.71
2018-10-17T00:45:57.649Z,12.69
2018-10-17T00:48:25.456Z,12.68
2018-10-17T00:50:53.137Z,12.62
2018-10-17T00:53:20.824Z,12.62
2018-10-17T00:55:48.497Z,12.58
2018-10-17T00:58:16.181Z,12.52
2018-10-17T01:00:43.887Z,12.56
2018-10-17T01:03:11.608Z,12.44
2018-10-17T01:05:39.338Z,12.43
2018-10-17T01:08:07.089Z,12.32
2018-10-17T01:10:34.728Z,12.24
2018-10-17T01:13:02.476Z,12.21
2018-10-17T01:15:30.092Z,12.16
2018-10-17T01:17:57.804Z,12.28
2018-10-17T01:20:25.512Z,12.26
2018-10-17T01:22:54.095Z,12.11
2018-10-17T01:25:21.716Z,12.06
2018-10-17T01:27:49.372Z,12.05
2018-10-17T01:30:17.121Z,12.07
2018-10-17T01:32:44.808Z,12.11
2018-10-17T01:35:12.540Z,12.04
2018-10-17T01:37:40.228Z,12.05
2018-10-17T01:40:08.475Z,12.05
2018-10-17T01:42:36.337Z,12.05
2018-10-17T01:45:05.392Z,12.10
2018-10-17T01:47:33.148Z,11.93
2018-10-17T01:50:00.808Z,11.80
2018-10-17T01:52:28.460Z,11.68
2018-10-17T01:54:56.177Z,11.66
2018-10-17T01:57:23.832Z,11.64
2018-10-17T01:59:51.551Z,11.59
2018-10-17T02:02:19.235Z,11.69
2018-10-17T02:04:46.870Z,11.59
2018-10-17T02:07:14.707Z,11.55
2018-10-17T02:09:42.335Z,11.49
2018-10-17T02:12:09.988Z,11.49
2018-10-17T02:14:37.715Z,11.46
2018-10-17T02:17:05.463Z,11.41
2018-10-17T02:19:33.147Z,11.32
2018-10-17T02:22:00.845Z,11.31
2018-10-17T02:24:28.593Z,11.48
2018-10-17T02:26:56.224Z,11.34
2018-10-17T02:29:23.832Z,11.27
2018-10-17T02:31:51.619Z,11.24
2018-10-17T02:34:19.307Z,11.20
2018-10-17T02:36:46.984Z,11.26
2018-10-17T02:39:14.704Z,11.23
2018-10-17T02:41:42.392Z,11.16
2018-10-17T02:44:10.125Z,11.15
2018-10-17T02:46:37.805Z,11.14
2018-10-17T02:49:05.620Z,11.10
2018-10-17T02:51:33.267Z,10.99
2018-10-17T02:54:01.006Z,10.93
2018-10-17T02:56:31.536Z,10.86
2018-10-17T02:58:59.303Z,10.85
2018-10-17T03:01:27.013Z,10.91
2018-10-17T03:03:54.748Z,10.90
2018-10-17T03:06:22.442Z,10.81
2018-10-17T03:08:50.172Z,10.75
2018-10-17T03:11:17.909Z,10.77
2018-10-17T03:13:45.524Z,10.76
2018-10-17T03:16:13.227Z,10.70
2018-10-17T03:18:40.965Z,10.62
2018-10-17T03:21:08.648Z,10.60
2018-10-17T03:23:36.406Z,10.63
2018-10-17T03:26:04.181Z,10.60
2018-10-17T03:28:31.837Z,10.58
2018-10-17T03:30:59.560Z,10.51
2018-10-17T03:33:27.197Z,10.54
2018-10-17T03:35:54.971Z,10.38
2018-10-17T03:38:22.622Z,10.45
2018-10-17T03:40:50.310Z,10.41
2018-10-17T03:43:18.042Z,10.39
2018-10-17T03:45:45.657Z,10.33
2018-10-17T03:48:13.368Z,10.22
2018-10-17T03:50:41.101Z,10.28
2018-10-17T03:53:09.093Z,10.25
2018-10-17T03:55:36.692Z,10.26
2018-10-17T03:58:04.994Z,10.26
2018-10-17T04:00:32.646Z,10.26
2018-10-17T04:03:00.405Z,10.20
2018-10-17T04:05:28.035Z,10.20
2018-10-17T04:07:55.783Z,10.16
2018-10-17T04:10:23.507Z,10.18
2018-10-17T04:12:51.312Z,10.18
2018-10-17T04:15:18.975Z,10.12
2018-10-17T04:17:46.686Z,9.93
2018-10-17T04:20:14.397Z,9.99
2018-10-17T04:22:54.877Z,10.03
2018-10-17T04:25:22.676Z,10.01
2018-10-17T04:27:50.993Z,9.94
2018-10-17T04:30:18.663Z,10.01
2018-10-17T04:32:46.381Z,9.96
2018-10-17T04:35:14.305Z,9.87
2018-10-17T04:37:42.101Z,9.85
2018-10-17T04:40:09.789Z,9.86
2018-10-17T04:42:37.425Z,9.92
2018-10-17T04:45:06.805Z,9.80
2018-10-17T04:47:34.773Z,9.76
2018-10-17T04:50:02.448Z,9.80
2018-10-17T04:52:30.218Z,9.83
2018-10-17T04:54:57.924Z,9.91
2018-10-17T04:57:25.577Z,9.85
2018-10-17T04:59:53.321Z,9.79
2018-10-17T05:02:21.089Z,9.76
2018-10-17T05:04:48.833Z,9.66
2018-10-17T05:07:16.664Z,9.62
2018-10-17T05:09:44.309Z,9.62
2018-10-17T05:12:12.014Z,9.61
2018-10-17T05:14:39.734Z,9.53
2018-10-17T05:17:07.511Z,9.44
2018-10-17T05:19:35.222Z,9.42
2018-10-17T05:22:02.957Z,9.43
2018-10-17T05:24:30.638Z,9.39
2018-10-17T05:26:58.433Z,9.32
2018-10-17T05:29:26.429Z,9.42
2018-10-17T05:32:00.851Z,9.43
2018-10-17T05:34:28.597Z,9.37
2018-10-17T05:36:56.352Z,9.42
2018-10-17T05:39:24.013Z,9.38
2018-10-17T05:41:51.729Z,9.42
2018-10-17T05:44:19.548Z,9.38
2018-10-17T05:46:47.282Z,9.39
2018-10-17T05:49:14.990Z,9.38
2018-10-17T05:51:42.705Z,9.30
2018-10-17T05:54:10.461Z,9.27
2018-10-17T05:56:38.168Z,9.27
2018-10-17T05:59:05.937Z,9.31
2018-10-17T06:01:33.863Z,9.26
2018-10-17T06:04:01.430Z,9.24
2018-10-17T06:06:29.121Z,9.24
2018-10-17T06:08:56.935Z,9.21
2018-10-17T06:11:24.663Z,9.25
2018-10-17T06:13:52.438Z,9.23
2018-10-17T06:16:20.113Z,9.24
2018-10-17T06:18:47.854Z,9.34
2018-10-17T06:21:15.612Z,9.32
2018-10-17T06:23:43.329Z,9.32
2018-10-17T06:26:11.053Z,9.34
2018-10-17T06:28:38.801Z,9.34
2018-10-17T06:31:06.535Z,9.37
2018-10-17T06:33:34.193Z,9.43
2018-10-17T06:36:05.415Z,9.47
2018-10-17T06:38:33.205Z,9.49
2018-10-17T06:41:00.987Z,9.55
2018-10-17T06:43:28.759Z,9.57
2018-10-17T06:45:56.380Z,9.65
2018-10-17T06:48:24.084Z,9.68
2018-10-17T06:50:51.829Z,9.72
2018-10-17T06:53:19.566Z,9.79
2018-10-17T06:55:47.243Z,9.87
2018-10-17T06:58:15.017Z,9.93
2018-10-17T07:00:42.738Z,10.00
2018-10-17T07:03:10.443Z,10.11
2018-10-17T07:05:38.222Z,10.26
2018-10-17T07:08:05.962Z,10.44
2018-10-17T07:10:33.677Z,10.65
2018-10-17T07:13:01.425Z,10.68
2018-10-17T07:15:29.258Z,10.83
2018-10-17T07:17:56.809Z,10.81
2018-10-17T07:20:24.473Z,10.86
2018-10-17T07:22:52.209Z,11.02
2018-10-17T07:25:19.917Z,11.15
2018-10-17T07:27:47.536Z,11.27
2018-10-17T07:30:22.030Z,11.39
2018-10-17T07:32:49.872Z,11.51
2018-10-17T07:35:17.672Z,11.55
2018-10-17T07:37:45.333Z,11.75
2018-10-17T07:40:13.035Z,11.85
2018-10-17T07:42:40.732Z,11.92
2018-10-17T07:45:08.566Z,11.99
2018-10-17T07:47:36.368Z,12.07
2018-10-17T07:50:04.776Z,12.18
2018-10-17T07:52:32.441Z,12.36
2018-10-17T07:55:00.110Z,12.32
2018-10-17T07:57:27.840Z,12.30
2018-10-17T07:59:55.540Z,12.51
2018-10-17T08:02:23.252Z,12.58
2018-10-17T08:04:51.065Z,12.65
2018-10-17T08:07:18.822Z,12.85
2018-10-17T08:09:46.567Z,12.97
2018-10-17T08:12:14.367Z,13.08
2018-10-17T08:14:42.141Z,13.25
2018-10-17T08:17:10.653Z,13.35
2018-10-17T08:19:38.407Z,13.37
2018-10-17T08:22:06.143Z,13.50
2018-10-17T08:24:33.851Z,13.59
2018-10-17T08:27:01.582Z,13.76
2018-10-17T08:29:29.328Z,13.86
2018-10-17T08:31:57.089Z,13.94
2018-10-17T08:34:24.732Z,14.10
2018-10-17T08:36:52.717Z,14.24
2018-10-17T08:39:20.149Z,14.32
2018-10-17T08:41:47.861Z,14.45
2018-10-17T08:44:15.528Z,14.51
2018-10-17T08:46:43.145Z,14.64
2018-10-17T08:49:10.890Z,14.88
2018-10-17T08:51:38.615Z,14.94
2018-10-17T08:54:06.358Z,15.06
2018-10-17T08:56:34.050Z,15.01
2018-10-17T08:59:01.839Z,15.06
2018-10-17T09:01:29.541Z,15.17
2018-10-17T09:03:57.305Z,15.33
2018-10-17T09:06:25.146Z,15.44
2018-10-17T09:08:52.910Z,15.51
2018-10-17T09:11:21.218Z,15.60
2018-10-17T09:13:49.729Z,15.55
2018-10-17T09:16:17.544Z,15.75
2018-10-17T09:18:45.150Z,15.84
2018-10-17T09:21:13.307Z,15.97
2018-10-17T09:23:40.667Z,16.00
2018-10-17T09:26:08.422Z,16.14
2018-10-17T09:28:36.118Z,16.19
2018-10-17T09:31:03.925Z,16.33
2018-10-17T09:33:32.212Z,16.31
2018-10-17T09:35:59.944Z,16.52
2018-10-17T09:38:28.238Z,16.61
2018-10-17T09:40:56.045Z,16.69
2018-10-17T09:43:23.887Z,16.82
2018-10-17T09:45:51.519Z,17.00
2018-10-17T09:48:19.358Z,17.21
2018-10-17T09:50:46.989Z,17.23
2018-10-17T09:53:14.748Z,17.39
2018-10-17T09:55:42.481Z,17.27
2018-10-17T09:58:10.317Z,17.46
2018-10-17T10:00:43.664Z,17.47
2018-10-17T10:03:11.536Z,17.44
2018-10-17T10:05:39.309Z,17.63
2018-10-17T10:08:07.817Z,17.66
2018-10-17T10:10:35.545Z,17.78
2018-10-17T10:13:03.798Z,17.84
2018-10-17T10:15:31.513Z,18.18
2018-10-17T10:17:59.191Z,18.02
2018-10-17T10:20:27.030Z,18.21
2018-10-17T10:22:54.836Z,18.17
2018-10-17T10:25:22.505Z,18.66
2018-10-17T10:27:50.162Z,18.96
2018-10-17T10:30:17.991Z,18.95
2018-10-17T10:32:45.621Z,19.28
2018-10-17T10:35:13.363Z,19.92
2018-10-17T10:37:41.089Z,20.16
2018-10-17T10:40:08.784Z,20.27
2018-10-17T10:42:36.425Z,20.47
2018-10-17T10:45:05.217Z,20.84
2018-10-17T10:47:32.833Z,21.15
2018-10-17T10:50:00.562Z,21.33
2018-10-17T10:52:28.321Z,21.52
2018-10-17T10:54:56.070Z,21.86
2018-10-17T10:57:23.773Z,22.20
2018-10-17T10:59:51.513Z,22.26
2018-10-17T11:02:19.324Z,22.39
2018-10-17T11:04:47.119Z,22.48
2018-10-17T11:07:14.781Z,22.80
2018-10-17T11:09:42.485Z,22.75
2018-10-17T11:12:10.191Z,22.97
2018-10-17T11:14:38.032Z,22.88
2018-10-17T11:17:05.677Z,23.13
2018-10-17T11:19:33.326Z,23.40
2018-10-17T11:22:01.105Z,23.54
2018-10-17T11:24:28.755Z,23.93
2018-10-17T11:26:56.483Z,23.81
2018-10-17T11:29:24.183Z,23.80
2018-10-17T11:31:51.919Z,24.34
2018-10-17T11:34:21.738Z,24.57
2018-10-17T11:36:49.511Z,24.17
2018-10-17T11:39:17.320Z,24.05
2018-10-17T11:41:44.929Z,24.31
2018-10-17T11:44:12.799Z,24.30
2018-10-17T11:46:40.506Z,24.33
2018-10-17T11:49:08.229Z,24.18
2018-10-17T11:51:35.896Z,24.31
2018-10-17T11:54:04.353Z,24.42
2018-10-17T11:56:32.024Z,24.27
2018-10-17T11:58:59.782Z,24.21
2018-10-17T12:01:27.821Z,24.28
2018-10-17T12:03:55.714Z,24.29
2018-10-17T12:06:23.284Z,24.43
2018-10-17T12:08:50.931Z,24.35
2018-10-17T12:11:18.830Z,24.41
2018-10-17T12:13:46.464Z,24.43
2018-10-17T12:16:14.569Z,24.03
2018-10-17T12:18:42.421Z,24.07
2018-10-17T12:21:10.162Z,24.15
2018-10-17T12:23:37.801Z,23.90
2018-10-17T12:26:05.577Z,23.71
2018-10-17T12:28:33.320Z,23.87
2018-10-17T12:31:00.904Z,23.72
2018-10-17T12:33:28.569Z,23.55
2018-10-17T12:35:56.292Z,23.68
2018-10-17T12:38:24.006Z,23.65
2018-10-17T12:40:51.834Z,23.41
2018-10-17T12:43:19.280Z,23.41
2018-10-17T12:45:47.039Z,23.49
2018-10-17T12:48:14.705Z,23.39
2018-10-17T12:50:43.386Z,23.36
2018-10-17T12:53:12.439Z,23.42
2018-10-17T12:55:40.013Z,23.48
2018-10-17T12:58:07.713Z,23.41
2018-10-17T13:00:35.380Z,23.33
2018-10-17T13:03:03.149Z,23.29
2018-10-17T13:05:30.796Z,23.24
2018-10-17T13:07:58.524Z,23.14
2018-10-17T13:10:26.260Z,23.13
2018-10-17T13:12:54.006Z,23.13
2018-10-17T13:15:21.726Z,23.19
2018-10-17T13:17:49.360Z,23.24
2018-10-17T13:20:17.052Z,23.14
2018-10-17T13:22:44.734Z,23.15
2018-10-17T13:25:12.481Z,23.11
2018-10-17T13:27:40.138Z,23.14
2018-10-17T13:30:08.347Z,23.21
2018-10-17T13:32:35.994Z,23.20
2018-10-17T13:35:04.319Z,23.12
2018-10-17T13:37:32.014Z,23.12
2018-10-17T13:39:59.641Z,23.10
2018-10-17T13:42:27.332Z,23.09
2018-10-17T13:44:54.984Z,23.12
2018-10-17T13:47:22.721Z,23.03
2018-10-17T13:49:50.413Z,23.05
2018-10-17T13:52:18.147Z,22.99
2018-10-17T13:54:46.067Z,22.97
2018-10-17T13:57:13.633Z,22.97
2018-10-17T13:59:41.361Z,22.92
2018-10-17T14:02:09.118Z,22.87
2018-10-17T14:04:36.843Z,22.87
2018-10-17T14:07:04.610Z,22.84
2018-10-17T14:09:32.269Z,22.89
2018-10-17T14:11:59.978Z,22.84
2018-10-17T14:14:27.881Z,22.91
2018-10-17T14:16:55.576Z,22.91
2018-10-17T14:19:28.239Z,22.96
2018-10-17T14:21:55.897Z,22.95
2018-10-17T14:24:23.817Z,22.98
2018-10-17T14:26:51.677Z,22.99
2018-10-17T14:29:19.436Z,23.01
2018-10-17T14:31:47.232Z,22.98
2018-10-17T14:34:14.948Z,23.02
2018-10-17T14:36:47.357Z,23.02
2018-10-17T14:39:15.139Z,22.98
2018-10-17T14:41:43.685Z,22.95
2018-10-17T14:44:12.709Z,22.91
2018-10-17T14:46:42.098Z,22.88
2018-10-17T14:49:10.278Z,22.86
2018-10-17T14:51:41.882Z,22.83
2018-10-17T14:54:11.441Z,22.75
2018-10-17T14:56:39.146Z,22.72
2018-10-17T14:59:06.892Z,22.68
2018-10-17T15:01:34.613Z,22.63
2018-10-17T15:04:02.342Z,22.60
2018-10-17T15:06:29.988Z,22.55
2018-10-17T15:08:57.669Z,22.51
2018-10-17T15:11:25.365Z,22.44
2018-10-17T15:13:53.317Z,22.38
2018-10-17T15:16:21.052Z,22.31
2018-10-17T15:18:48.773Z,22.29
2018-10-17T15:21:19.405Z,22.27
2018-10-17T15:23:47.114Z,22.20
2018-10-17T15:26:14.760Z,22.15
2018-10-17T15:28:42.517Z,22.11
2018-10-17T15:31:10.283Z,22.07
2018-10-17T15:33:37.952Z,22.04
2018-10-17T15:36:05.871Z,21.96
2018-10-17T15:38:33.517Z,21.94
2018-10-17T15:41:01.178Z,21.88
2018-10-17T15:43:28.954Z,21.85
2018-10-17T15:45:56.628Z,21.79
2018-10-17T15:48:28.640Z,21.72
2018-10-17T15:50:56.483Z,21.69
2018-10-17T15:53:24.148Z,21.61
2018-10-17T15:55:51.869Z,21.55
2018-10-17T15:58:19.633Z,21.47
2018-10-17T16:00:47.379Z,21.36
2018-10-17T16:03:15.141Z,21.28
2018-10-17T16:05:42.804Z,21.21
2018-10-17T16:08:10.648Z,21.13
2018-10-17T16:10:38.311Z,20.99
2018-10-17T16:13:06.027Z,20.95
2018-10-17T16:15:38.329Z,20.85
2018-10-17T16:18:06.596Z,20.75
2018-10-17T16:20:34.233Z,20.64
2018-10-17T16:23:02.114Z,20.62
2018-10-17T16:25:29.633Z,20.55
2018-10-17T16:27:57.338Z,20.44
2018-10-17T16:30:27.255Z,20.30
2018-10-17T16:32:54.817Z,20.22
2018-10-17T16:35:22.538Z,20.15
2018-10-17T16:37:50.357Z,19.99
2018-10-17T16:40:18.058Z,19.83
2018-10-17T16:42:45.814Z,19.74
2018-10-17T16:45:13.488Z,19.70
2018-10-17T16:47:41.386Z,19.62
2018-10-17T16:50:09.111Z,19.48
2018-10-17T16:52:36.834Z,19.39
2018-10-17T16:55:06.296Z,19.29
2018-10-17T16:57:33.984Z,19.22
2018-10-17T17:00:01.810Z,19.12
2018-10-17T17:02:29.540Z,18.96
2018-10-17T17:04:57.226Z,18.95
2018-10-17T17:07:24.945Z,18.90
2018-10-17T17:09:52.644Z,18.84
2018-10-17T17:12:20.397Z,18.73
2018-10-17T17:14:48.194Z,18.60
2018-10-17T17:17:15.912Z,18.53
2018-10-17T17:19:43.722Z,18.50
2018-10-17T17:22:11.541Z,18.69
2018-10-17T17:24:39.334Z,18.28
2018-10-17T17:27:07.137Z,18.08
2018-10-17T17:29:34.991Z,18.04
2018-10-17T17:32:02.757Z,17.98
2018-10-17T17:34:30.496Z,17.85
2018-10-17T17:36:58.197Z,17.74
2018-10-17T17:39:25.877Z,17.66
2018-10-17T17:41:53.599Z,17.63
2018-10-17T17:44:21.295Z,17.67
2018-10-17T17:46:48.917Z,17.46
2018-10-17T17:49:16.568Z,17.39
2018-10-17T17:51:45.908Z,17.30
2018-10-17T17:54:14.093Z,17.21
2018-10-17T17:56:41.889Z,17.14
2018-10-17T17:59:10.509Z,17.10
2018-10-17T18:01:39.341Z,16.99
2018-10-17T18:04:07.913Z,16.91
2018-10-17T18:06:36.323Z,16.85
2018-10-17T18:09:07.773Z,16.79
2018-10-17T18:11:35.672Z,16.68
2018-10-17T18:14:03.973Z,16.57
2018-10-17T18:16:32.836Z,16.59
2018-10-17T18:19:01.005Z,16.57
2018-10-17T18:21:29.676Z,16.60
2018-10-17T18:23:59.576Z,16.54
2018-10-17T18:26:27.548Z,16.56
2018-10-17T18:28:55.706Z,16.56
2018-10-17T18:31:25.074Z,16.58
2018-10-17T18:33:55.058Z,16.49
2018-10-17T18:36:23.367Z,16.25
2018-10-17T18:38:51.037Z,16.13
2018-10-17T18:41:20.630Z,15.97
2018-10-17T18:43:50.457Z,15.90
2018-10-17T18:46:18.365Z,15.99
2018-10-17T18:48:46.045Z,16.14
2018-10-17T18:51:16.735Z,15.95
2018-10-17T18:53:44.897Z,15.91
2018-10-17T18:56:12.654Z,15.93
2018-10-17T18:58:40.640Z,15.83
2018-10-17T19:01:08.383Z,15.91
2018-10-17T19:03:36.186Z,15.92
2018-10-17T19:06:04.181Z,15.82
2018-10-17T19:08:31.872Z,15.75
2018-10-17T19:10:59.996Z,15.52
2018-10-17T19:13:27.866Z,15.45
2018-10-17T19:15:55.892Z,15.25
2018-10-17T19:18:23.658Z,15.26
2018-10-17T19:20:51.562Z,15.32
2018-10-17T19:23:20.404Z,15.27
2018-10-17T19:25:48.289Z,15.07
2018-10-17T19:28:17.521Z,15.05
2018-10-17T19:30:45.405Z,15.01
2018-10-17T19:33:13.650Z,14.92
2018-10-17T19:35:42.446Z,14.94
2018-10-17T19:38:10.812Z,14.78
2018-10-17T19:40:38.712Z,14.89
2018-10-17T19:43:06.488Z,14.75
2018-10-17T19:45:34.425Z,14.64
2018-10-17T19:48:02.292Z,14.57
2018-10-17T19:50:29.993Z,14.47
2018-10-17T19:53:05.437Z,14.38
2018-10-17T19:55:40.683Z,14.32
2018-10-17T19:58:12.654Z,14.34
2018-10-17T20:00:44.875Z,14.37
2018-10-17T20:03:12.923Z,14.34
2018-10-17T20:05:41.712Z,14.30
2018-10-17T20:08:09.506Z,14.25
2018-10-17T20:10:37.187Z,14.30
2018-10-17T20:13:05.716Z,14.25
2018-10-17T20:15:34.796Z,14.11
2018-10-17T20:18:02.601Z,14.06
2018-10-17T20:20:30.277Z,13.98
2018-10-17T20:22:58.021Z,13.98
2018-10-17T20:25:25.758Z,13.99
2018-10-17T20:27:53.532Z,13.91
2018-10-17T20:30:21.280Z,13.87
2018-10-17T20:32:48.965Z,13.96
2018-10-17T20:35:16.763Z,13.96
2018-10-17T20:37:44.415Z,13.93
2018-10-17T20:40:12.221Z,13.88
2018-10-17T20:42:39.953Z,13.79
2018-10-17T20:45:07.754Z,13.80
2018-10-17T20:47:35.498Z,13.76
2018-10-17T20:50:03.650Z,13.76
2018-10-17T20:52:31.473Z,13.73
2018-10-17T20:54:58.981Z,13.61
2018-10-17T20:57:26.817Z,13.49
2018-10-17T20:59:54.593Z,13.43
2018-10-17T21:02:22.360Z,13.45
2018-10-17T21:04:50.030Z,13.40
2018-10-17T21:07:17.793Z,13.47
2018-10-17T21:09:45.438Z,13.50
2018-10-17T21:12:13.095Z,13.39
2018-10-17T21:14:40.801Z,13.21
2018-10-17T21:17:08.483Z,13.16
2018-10-17T21:19:36.184Z,13.21
2018-10-17T21:22:04.264Z,13.14
2018-10-17T21:24:32.160Z,13.02
2018-10-17T21:27:00.070Z,13.03
2018-10-17T21:29:27.920Z,13.11
2018-10-17T21:31:55.651Z,13.13
2018-10-17T21:34:23.346Z,13.07
2018-10-17T21:36:50.989Z,13.02
2018-10-17T21:39:18.632Z,12.92
2018-10-17T21:41:46.296Z,12.88
2018-10-17T21:44:14.182Z,12.86
2018-10-17T21:46:41.864Z,12.92
2018-10-17T21:49:09.878Z,12.82
2018-10-17T21:51:38.265Z,12.77
2018-10-17T21:54:06.252Z,12.74
2018-10-17T21:56:34.290Z,12.69
2018-10-17T21:59:02.176Z,12.66
2018-10-17T22:01:29.965Z,12.60
2018-10-17T22:03:57.668Z,12.61
2018-10-17T22:06:25.383Z,12.56
2018-10-17T22:08:53.026Z,12.54
2018-10-17T22:11:20.741Z,12.61
2018-10-17T22:13:48.428Z,12.67
2018-10-17T22:16:16.169Z,12.64
2018-10-17T22:18:43.905Z,12.46
2018-10-17T22:21:11.612Z,12.39
2018-10-17T22:23:39.288Z,12.27
2018-10-17T22:26:07.734Z,12.12
2018-10-17T22:28:35.396Z,12.23
2018-10-17T22:31:03.101Z,12.26
2018-10-17T22:33:31.807Z,12.26
2018-10-17T22:35:59.549Z,12.29
2018-10-17T22:38:27.272Z,12.26
2018-10-17T22:40:54.953Z,12.19
2018-10-17T22:43:22.705Z,12.11
2018-10-17T22:45:50.356Z,12.05
2018-10-17T22:48:18.104Z,12.05
2018-10-17T22:50:45.869Z,12.00
2018-10-17T22:53:14.145Z,11.96
2018-10-17T22:55:41.811Z,11.96
2018-10-17T22:58:09.473Z,11.90
2018-10-17T23:00:42.577Z,11.92
2018-10-17T23:03:10.248Z,11.84
2018-10-17T23:05:39.486Z,11.75
2018-10-17T23:08:08.592Z,11.68
2018-10-17T23:10:36.329Z,11.64
2018-10-17T23:13:04.284Z,11.83
2018-10-17T23:15:32.151Z,11.76
2018-10-17T23:17:59.960Z,11.70
2018-10-17T23:20:27.705Z,11.75
2018-10-17T23:22:55.430Z,11.69
2018-10-17T23:25:23.129Z,11.65
2018-10-17T23:27:50.813Z,11.52
2018-10-17T23:30:18.504Z,11.56
2018-10-17T23:32:46.209Z,11.53
2018-10-17T23:35:13.893Z,11.52
2018-10-17T23:37:41.524Z,11.49
2018-10-17T23:40:09.309Z,11.48
2018-10-17T23:42:37.651Z,11.47
2018-10-17T23:45:06.606Z,11.46
2018-10-17T23:47:34.585Z,11.43
2018-10-17T23:50:02.449Z,11.35
2018-10-17T23:52:30.117Z,11.28
2018-10-17T23:54:57.732Z,11.33
2018-10-17T23:57:25.422Z,11.33
2018-10-17T23:59:53.079Z,11.30
